Terminal Aerodrome Forecast
Issued by NWS Bismarck, ND

Home | Current Version | Previous Version | Graphics & Text | Print | Product List | Glossary On
Versions: 1 2 3 4 5 6 7 8 9 10 11 12 13 14 15 16 17 18 19 20 21 22 23
000
FTUS43 KBIS 290800 AAA
TAFBIS
TAF AMD
KBIS 290851Z 2909/3006 31025G32KT P6SM BKN030
      TEMPO 2909/2910 29018G25KT 5SM -RA BR BKN010
     FM291300 31018G25KT P6SM SCT230=

USA.gov is the U.S. government's official web portal to all federal, state and local government web resources and services.